createdAt,value
2022-08-03T00:01:37.674Z,3.97
2022-08-03T00:04:05.553Z,3.83
2022-08-03T00:06:36.742Z,3.63
2022-08-03T00:09:05.612Z,3.63
2022-08-03T00:11:32.359Z,3.40
2022-08-03T00:13:59.175Z,3.77
2022-08-03T00:16:26.376Z,3.60
2022-08-03T00:18:53.051Z,3.83
2022-08-03T00:21:19.684Z,3.60
2022-08-03T00:23:51.406Z,3.80
2022-08-03T00:26:19.997Z,3.27
2022-08-03T00:28:46.632Z,3.23
2022-08-03T00:31:13.663Z,4.10
2022-08-03T00:33:59.240Z,3.50
2022-08-03T00:36:27.488Z,4.20
2022-08-03T00:38:54.453Z,3.87
2022-08-03T00:41:21.197Z,4.33
2022-08-03T00:43:47.889Z,4.20
2022-08-03T00:46:20.619Z,4.50
2022-08-03T00:48:49.220Z,3.77
2022-08-03T00:51:16.337Z,3.90
2022-08-03T00:53:43.334Z,4.33
2022-08-03T00:56:12.935Z,3.97
2022-08-03T00:58:39.540Z,4.47
2022-08-03T01:01:07.203Z,4.37
2022-08-03T01:03:34.399Z,4.33
2022-08-03T01:06:09.887Z,3.90
2022-08-03T01:08:52.408Z,4.87
2022-08-03T01:11:27.756Z,4.33
2022-08-03T01:14:18.173Z,4.20
2022-08-03T01:17:00.003Z,3.77
2022-08-03T01:19:41.363Z,3.93
2022-08-03T01:22:18.267Z,3.93
2022-08-03T01:25:02.808Z,3.67
2022-08-03T01:28:09.515Z,4.47
2022-08-03T01:30:40.768Z,3.90
2022-08-03T01:33:15.451Z,4.03
2022-08-03T01:35:46.988Z,3.87
2022-08-03T01:38:19.878Z,3.90
2022-08-03T01:40:47.647Z,4.03
2022-08-03T01:44:28.544Z,3.50
2022-08-03T01:46:07.412Z,3.97
2022-08-03T01:48:36.145Z,4.03
2022-08-03T01:51:03.589Z,3.87
2022-08-03T01:53:33.560Z,3.80
2022-08-03T01:56:02.293Z,3.97
2022-08-03T01:58:31.357Z,4.13
2022-08-03T02:01:01.120Z,3.83
2022-08-03T02:03:31.596Z,4.00
2022-08-03T02:06:55.606Z,3.97
2022-08-03T02:08:48.286Z,3.83
2022-08-03T02:11:15.262Z,3.43
2022-08-03T02:13:43.387Z,4.13
2022-08-03T02:16:11.503Z,4.20
2022-08-03T02:18:40.092Z,4.07
2022-08-03T02:21:11.017Z,4.10
2022-08-03T02:23:38.649Z,3.87
2022-08-03T02:26:09.443Z,3.93
2022-08-03T02:28:41.380Z,3.90
2022-08-03T02:31:13.682Z,4.40
2022-08-03T02:33:43.902Z,3.93
2022-08-03T02:36:14.188Z,3.87
2022-08-03T02:38:43.503Z,3.97
2022-08-03T02:41:16.717Z,3.90
2022-08-03T02:44:05.510Z,3.70
2022-08-03T02:46:37.671Z,4.03
2022-08-03T02:49:40.511Z,4.30
2022-08-03T02:51:54.687Z,4.27
2022-08-03T02:54:24.946Z,4.13
2022-08-03T02:56:53.861Z,4.90
2022-08-03T02:59:22.062Z,4.30
2022-08-03T03:01:49.668Z,4.27
2022-08-03T03:04:17.060Z,4.17
2022-08-03T03:06:44.776Z,4.10
2022-08-03T03:09:14.700Z,4.03
2022-08-03T03:11:42.801Z,3.97
2022-08-03T03:14:13.333Z,4.60
2022-08-03T03:16:41.959Z,4.70
2022-08-03T03:19:12.752Z,4.63
2022-08-03T03:21:40.224Z,4.50
2022-08-03T03:24:08.901Z,4.30
2022-08-03T03:26:40.685Z,4.83
2022-08-03T03:29:09.664Z,4.80
2022-08-03T03:31:37.202Z,5.40
2022-08-03T03:34:05.041Z,4.90
2022-08-03T03:36:33.608Z,5.57
2022-08-03T03:39:00.365Z,5.50
2022-08-03T03:41:43.232Z,5.27
2022-08-03T03:44:09.997Z,5.10
2022-08-03T03:46:38.743Z,5.47
2022-08-03T03:49:07.319Z,5.00
2022-08-03T03:51:34.385Z,4.77
2022-08-03T03:54:03.425Z,5.20
2022-08-03T03:56:30.413Z,4.63
2022-08-03T03:58:57.196Z,4.87
2022-08-03T04:01:23.960Z,5.13
2022-08-03T04:03:50.639Z,5.47
2022-08-03T04:06:38.160Z,4.47
2022-08-03T04:09:23.665Z,5.47
2022-08-03T04:11:54.994Z,5.30
2022-08-03T04:14:35.011Z,5.00
2022-08-03T04:17:07.015Z,5.37
2022-08-03T04:19:52.503Z,4.97
2022-08-03T04:22:24.006Z,5.10
2022-08-03T04:24:55.359Z,4.67
2022-08-03T04:27:25.482Z,5.13
2022-08-03T04:29:54.473Z,5.90
2022-08-03T04:32:25.125Z,5.60
2022-08-03T04:34:53.443Z,5.13
2022-08-03T04:37:32.971Z,5.33
2022-08-03T04:40:02.405Z,5.43
2022-08-03T04:42:31.828Z,5.30
2022-08-03T04:45:01.419Z,5.53
2022-08-03T04:47:29.948Z,6.23
2022-08-03T04:49:56.597Z,6.33
2022-08-03T04:52:23.501Z,6.00
2022-08-03T04:54:51.197Z,6.27
2022-08-03T04:57:23.143Z,6.37
2022-08-03T04:59:58.189Z,5.93
2022-08-03T05:02:29.054Z,7.00
2022-08-03T05:04:55.771Z,5.80
2022-08-03T05:07:25.006Z,6.40
2022-08-03T05:09:52.642Z,6.83
2022-08-03T05:12:19.641Z,6.70
2022-08-03T05:14:46.284Z,6.47
2022-08-03T05:17:12.927Z,20.20
2022-08-03T05:19:39.560Z,5.73
2022-08-03T05:22:06.231Z,5.97
2022-08-03T05:24:32.866Z,6.43
2022-08-03T05:26:59.508Z,6.63
2022-08-03T05:29:26.141Z,6.37
2022-08-03T05:31:52.764Z,6.43
2022-08-03T05:34:19.440Z,6.03
2022-08-03T05:36:46.063Z,6.47
2022-08-03T05:39:12.702Z,6.23
2022-08-03T05:41:39.337Z,5.60
2022-08-03T05:44:06.082Z,5.90
2022-08-03T05:46:32.842Z,5.50
2022-08-03T05:48:59.556Z,5.70
2022-08-03T05:51:26.402Z,5.53
2022-08-03T05:53:53.041Z,5.70
2022-08-03T05:56:23.574Z,5.60
2022-08-03T05:58:52.113Z,5.80
2022-08-03T06:01:21.721Z,5.93
2022-08-03T06:03:49.158Z,5.77
2022-08-03T06:06:16.282Z,5.83
2022-08-03T06:08:44.133Z,6.00
2022-08-03T06:11:11.180Z,5.60
2022-08-03T06:13:37.944Z,6.23
2022-08-03T06:16:04.900Z,5.80
2022-08-03T06:18:31.659Z,5.90
2022-08-03T06:20:58.324Z,6.13
2022-08-03T06:23:54.683Z,5.07
2022-08-03T06:26:23.794Z,5.67
2022-08-03T06:28:52.997Z,5.50
2022-08-03T06:31:23.728Z,5.47
2022-08-03T06:34:30.560Z,5.43
2022-08-03T06:36:37.071Z,5.07
2022-08-03T06:39:04.410Z,4.97
2022-08-03T06:41:31.024Z,4.80
2022-08-03T06:44:07.988Z,4.90
2022-08-03T06:46:35.385Z,4.90
2022-08-03T06:49:02.091Z,4.47
2022-08-03T06:52:03.426Z,7.93
2022-08-03T06:54:15.911Z,5.90
2022-08-03T06:56:42.554Z,4.90
2022-08-03T06:59:09.173Z,4.57
2022-08-03T07:01:55.845Z,4.57
2022-08-03T07:04:22.533Z,4.43
2022-08-03T07:06:49.185Z,4.17
2022-08-03T07:09:15.843Z,4.67
2022-08-03T07:11:42.647Z,4.07
2022-08-03T07:14:09.275Z,4.33
2022-08-03T07:16:35.933Z,4.07
2022-08-03T07:19:02.644Z,4.30
2022-08-03T07:21:29.253Z,4.10
2022-08-03T07:23:55.888Z,4.07
2022-08-03T07:26:22.554Z,4.73
2022-08-03T07:28:49.194Z,3.87
2022-08-03T07:31:16.075Z,3.67
2022-08-03T07:33:42.809Z,4.17
2022-08-03T07:36:09.432Z,4.20
2022-08-03T07:38:36.977Z,3.67
2022-08-03T07:41:04.143Z,4.23
2022-08-03T07:43:30.776Z,3.70
2022-08-03T07:45:57.422Z,3.93
2022-08-03T07:48:24.104Z,3.70
2022-08-03T07:50:51.731Z,3.70
2022-08-03T07:53:18.544Z,4.80
2022-08-03T07:55:45.185Z,3.53
2022-08-03T07:58:16.513Z,3.50
2022-08-03T08:00:46.045Z,3.73
2022-08-03T08:03:13.400Z,3.43
2022-08-03T08:05:40.195Z,3.50
2022-08-03T08:08:07.319Z,3.63
2022-08-03T08:10:35.023Z,3.40
2022-08-03T08:13:02.616Z,2.97
2022-08-03T08:15:29.933Z,3.50
2022-08-03T08:17:58.554Z,3.20
2022-08-03T08:20:31.597Z,3.13
2022-08-03T08:23:29.057Z,2.67
2022-08-03T08:25:56.122Z,2.73
2022-08-03T08:28:30.486Z,3.40
2022-08-03T08:31:00.110Z,3.07
2022-08-03T08:33:37.309Z,3.03
2022-08-03T08:36:15.620Z,2.60
2022-08-03T08:38:44.526Z,2.50
2022-08-03T08:41:12.937Z,2.43
2022-08-03T08:43:39.884Z,2.60
2022-08-03T08:46:08.450Z,2.73
2022-08-03T08:48:38.610Z,2.50
2022-08-03T08:51:05.957Z,2.50
2022-08-03T08:53:37.189Z,3.00
2022-08-03T08:56:05.255Z,2.67
2022-08-03T08:58:37.599Z,3.13
2022-08-03T09:01:05.908Z,3.47
2022-08-03T09:03:36.347Z,3.30
2022-08-03T09:06:04.117Z,2.93
2022-08-03T09:08:32.282Z,3.60
2022-08-03T09:11:02.148Z,2.50
2022-08-03T09:13:30.348Z,2.80
2022-08-03T09:16:10.997Z,2.87
2022-08-03T09:18:38.314Z,2.60
2022-08-03T09:21:33.541Z,2.43
2022-08-03T09:24:05.237Z,3.50
2022-08-03T09:26:35.755Z,2.60
2022-08-03T09:29:13.999Z,2.93
2022-08-03T09:31:46.404Z,3.30
2022-08-03T09:34:15.813Z,3.30
2022-08-03T09:36:50.884Z,2.87
2022-08-03T09:39:40.271Z,2.60
2022-08-03T09:42:14.922Z,2.43
2022-08-03T09:44:47.294Z,2.60
2022-08-03T09:47:16.765Z,3.07
2022-08-03T09:49:57.505Z,2.80
2022-08-03T09:52:39.132Z,3.23
2022-08-03T09:55:23.499Z,3.20
2022-08-03T09:58:07.076Z,2.83
2022-08-03T10:00:55.479Z,2.83
2022-08-03T10:03:22.894Z,2.93
2022-08-03T10:05:49.581Z,3.10
2022-08-03T10:08:17.615Z,2.90
2022-08-03T10:10:45.892Z,2.70
2022-08-03T10:13:14.172Z,3.10
2022-08-03T10:16:23.180Z,3.10
2022-08-03T10:18:27.703Z,2.60
2022-08-03T10:21:01.305Z,2.77
2022-08-03T10:23:31.867Z,2.43
2022-08-03T10:26:03.714Z,2.80
2022-08-03T10:28:44.958Z,3.90
2022-08-03T10:31:13.845Z,2.73
2022-08-03T10:33:51.371Z,2.83
2022-08-03T10:36:22.907Z,2.80
2022-08-03T10:38:55.092Z,3.10
2022-08-03T10:41:24.332Z,2.87
2022-08-03T10:43:58.514Z,2.90
2022-08-03T10:46:26.267Z,2.93
2022-08-03T10:48:53.778Z,3.10
2022-08-03T10:51:21.417Z,2.47
2022-08-03T10:53:55.059Z,2.50
2022-08-03T10:56:54.439Z,2.80
2022-08-03T10:59:45.795Z,2.40
2022-08-03T11:02:14.217Z,3.00
2022-08-03T11:04:44.714Z,2.93
2022-08-03T11:07:18.951Z,2.73
2022-08-03T11:09:48.522Z,2.63
2022-08-03T11:12:32.161Z,3.10
2022-08-03T11:15:02.754Z,4.00
2022-08-03T11:17:29.822Z,2.73
2022-08-03T11:19:58.191Z,2.50
2022-08-03T11:22:28.250Z,2.47
2022-08-03T11:24:56.244Z,2.63
2022-08-03T11:27:32.800Z,2.77
2022-08-03T11:30:04.766Z,3.17
2022-08-03T11:32:37.408Z,3.50
2022-08-03T11:35:10.129Z,2.93
2022-08-03T11:38:03.278Z,2.60
2022-08-03T11:40:35.979Z,2.77
2022-08-03T11:43:04.285Z,2.77
2022-08-03T11:45:31.428Z,3.17
2022-08-03T11:48:02.324Z,2.70
2022-08-03T11:50:37.435Z,3.10
2022-08-03T11:53:06.775Z,2.70
2022-08-03T11:55:33.495Z,2.70
2022-08-03T11:59:01.616Z,2.67
2022-08-03T12:00:47.063Z,2.60
2022-08-03T12:03:16.250Z,3.10
2022-08-03T12:05:51.315Z,2.83
2022-08-03T12:08:39.362Z,2.70
2022-08-03T12:11:07.948Z,2.60
2022-08-03T12:14:10.734Z,2.70
2022-08-03T12:16:25.791Z,2.30
2022-08-03T12:19:04.819Z,2.87
2022-08-03T12:21:32.325Z,2.13
2022-08-03T12:24:05.709Z,2.47
2022-08-03T12:26:52.244Z,2.30
2022-08-03T12:29:27.222Z,2.57
2022-08-03T12:31:53.922Z,3.30
2022-08-03T12:34:20.830Z,3.07
2022-08-03T12:36:56.455Z,3.50
2022-08-03T12:39:25.002Z,3.13
2022-08-03T12:41:56.326Z,2.67
2022-08-03T12:44:35.511Z,2.93
2022-08-03T12:47:03.986Z,2.80
2022-08-03T12:49:49.296Z,2.47
2022-08-03T12:52:17.909Z,2.80
2022-08-03T12:54:56.238Z,3.10
2022-08-03T12:57:23.509Z,2.80
2022-08-03T12:59:53.533Z,2.47
2022-08-03T13:02:25.722Z,3.30
2022-08-03T13:04:54.508Z,3.17
2022-08-03T13:07:22.770Z,2.70
2022-08-03T13:09:53.002Z,3.00
2022-08-03T13:12:24.229Z,2.80
2022-08-03T13:14:54.651Z,2.77
2022-08-03T13:17:21.895Z,2.53
2022-08-03T13:19:49.502Z,3.00
2022-08-03T13:22:19.055Z,3.10
2022-08-03T13:24:47.773Z,3.03
2022-08-03T13:28:01.233Z,3.00
2022-08-03T13:30:02.210Z,2.80
2022-08-03T13:32:29.100Z,3.20
2022-08-03T13:34:55.785Z,3.10
2022-08-03T13:37:22.859Z,2.50
2022-08-03T13:39:58.978Z,2.73
2022-08-03T13:42:29.457Z,2.80
2022-08-03T13:44:56.331Z,2.83
2022-08-03T13:47:23.265Z,3.03
2022-08-03T13:50:00.118Z,3.00
2022-08-03T13:52:27.916Z,4.03
2022-08-03T13:54:54.697Z,3.73
2022-08-03T13:58:02.397Z,2.83
2022-08-03T14:00:08.695Z,3.80
2022-08-03T14:02:35.460Z,3.90
2022-08-03T14:05:02.207Z,3.63
2022-08-03T14:07:28.853Z,3.00
2022-08-03T14:09:55.543Z,2.93
2022-08-03T14:12:22.304Z,3.47
2022-08-03T14:14:48.990Z,3.87
2022-08-03T14:17:16.496Z,3.50
2022-08-03T14:19:53.575Z,3.30
2022-08-03T14:22:21.339Z,3.20
2022-08-03T14:24:49.435Z,3.03
2022-08-03T14:27:16.551Z,3.00
2022-08-03T14:29:43.283Z,2.63
2022-08-03T14:32:13.338Z,2.80
2022-08-03T14:34:41.153Z,2.90
2022-08-03T14:37:08.228Z,3.50
2022-08-03T14:42:21.861Z,2.87
2022-08-03T14:44:48.603Z,2.87
2022-08-03T14:47:15.254Z,3.23
2022-08-03T14:50:38.081Z,2.90
2022-08-03T14:52:29.625Z,2.70
2022-08-03T14:54:56.560Z,3.00
2022-08-03T14:57:23.219Z,3.00
2022-08-03T14:59:55.627Z,2.97
2022-08-03T15:02:24.629Z,4.30
2022-08-03T15:04:51.990Z,3.50
2022-08-03T15:07:19.110Z,3.77
2022-08-03T15:09:46.190Z,3.40
2022-08-03T15:12:12.961Z,3.17
2022-08-03T15:14:39.592Z,3.00
2022-08-03T15:17:06.903Z,3.17
2022-08-03T15:20:03.681Z,4.10
2022-08-03T15:22:24.907Z,2.83
2022-08-03T15:26:02.500Z,2.97
2022-08-03T15:28:17.470Z,3.00
2022-08-03T15:30:44.141Z,3.40
2022-08-03T15:33:10.836Z,3.47
2022-08-03T15:35:37.699Z,3.43
2022-08-03T15:38:09.055Z,3.10
2022-08-03T15:40:36.203Z,3.13
2022-08-03T15:43:02.904Z,2.80
2022-08-03T15:45:29.541Z,3.83
2022-08-03T15:48:03.941Z,3.00
2022-08-03T15:50:30.609Z,2.60
2022-08-03T15:52:57.333Z,2.90
2022-08-03T15:55:24.184Z,2.43
2022-08-03T15:59:04.635Z,2.70
2022-08-03T16:00:37.754Z,2.90
2022-08-03T16:03:04.592Z,3.43
2022-08-03T16:05:31.338Z,3.70
2022-08-03T16:08:03.970Z,2.93
2022-08-03T16:10:32.269Z,3.57
2022-08-03T16:12:59.829Z,3.00
2022-08-03T16:15:26.639Z,2.70
2022-08-03T16:17:53.262Z,2.77
2022-08-03T16:20:34.151Z,2.60
2022-08-03T16:23:04.171Z,2.90
2022-08-03T16:25:40.891Z,2.97
2022-08-03T16:28:13.587Z,2.53
2022-08-03T16:30:44.267Z,2.83
2022-08-03T16:33:16.599Z,3.07
2022-08-03T16:35:45.120Z,2.80
2022-08-03T16:38:15.343Z,3.03
2022-08-03T16:40:45.753Z,3.00
2022-08-03T16:43:17.840Z,3.27
2022-08-03T16:45:45.505Z,3.47
2022-08-03T16:48:12.200Z,3.40
2022-08-03T16:50:38.918Z,3.60
2022-08-03T16:53:12.807Z,3.57
2022-08-03T16:55:52.156Z,3.17
2022-08-03T16:58:34.569Z,2.90
2022-08-03T17:01:21.472Z,3.27
2022-08-03T17:04:03.327Z,3.50
2022-08-03T17:06:36.374Z,3.10
2022-08-03T17:09:08.811Z,3.10
2022-08-03T17:11:38.397Z,2.70
2022-08-03T17:14:13.637Z,2.63
2022-08-03T17:16:52.899Z,2.60
2022-08-03T17:19:23.647Z,2.60
2022-08-03T17:22:04.193Z,2.87
2022-08-03T17:24:41.122Z,2.27
2022-08-03T17:27:23.104Z,2.40
2022-08-03T17:30:19.013Z,2.43
2022-08-03T17:32:57.028Z,2.50
2022-08-03T17:35:36.736Z,2.20
2022-08-03T17:38:10.329Z,2.70
2022-08-03T17:40:37.939Z,2.50
2022-08-03T17:44:12.736Z,2.67
2022-08-03T17:48:41.437Z,2.13
2022-08-03T17:51:21.954Z,2.70
2022-08-03T17:54:00.443Z,2.47
2022-08-03T17:56:46.383Z,2.47
2022-08-03T17:59:51.373Z,2.70
2022-08-03T18:02:53.925Z,2.63
2022-08-03T18:05:21.982Z,2.27
2022-08-03T18:07:59.296Z,2.53
2022-08-03T18:10:35.567Z,2.77
2022-08-03T18:13:12.501Z,2.57
2022-08-03T18:15:46.594Z,2.30
2022-08-03T18:18:16.985Z,2.50
2022-08-03T18:21:06.668Z,2.20
2022-08-03T18:23:38.012Z,2.87
2022-08-03T18:26:10.760Z,2.63
2022-08-03T18:28:39.421Z,2.33
2022-08-03T18:31:10.047Z,2.40
2022-08-03T18:34:17.897Z,2.40
2022-08-03T18:36:30.560Z,2.47
2022-08-03T18:39:14.221Z,2.47
2022-08-03T18:41:46.516Z,2.20
2022-08-03T18:44:52.854Z,2.53
2022-08-03T18:47:52.565Z,2.37
2022-08-03T18:50:28.753Z,2.20
2022-08-03T18:53:19.945Z,2.40
2022-08-03T18:56:14.631Z,2.40
2022-08-03T18:58:55.408Z,2.20
2022-08-03T19:02:00.225Z,2.40
2022-08-03T19:04:45.689Z,2.40
2022-08-03T19:07:23.915Z,2.67
2022-08-03T19:09:58.244Z,2.27
2022-08-03T19:12:37.867Z,2.23
2022-08-03T19:15:13.394Z,2.40
2022-08-03T19:17:50.217Z,2.23
2022-08-03T19:20:22.416Z,2.40
2022-08-03T19:22:54.099Z,2.70
2022-08-03T19:25:34.559Z,2.40
2022-08-03T19:28:03.917Z,2.43
2022-08-03T19:30:40.319Z,2.43
2022-08-03T19:33:12.823Z,2.37
2022-08-03T19:35:55.066Z,2.57
2022-08-03T19:38:27.538Z,2.70
2022-08-03T19:44:00.257Z,2.60
2022-08-03T19:46:33.824Z,2.20
2022-08-03T19:49:04.735Z,2.60
2022-08-03T19:51:59.428Z,2.10
2022-08-03T19:54:29.759Z,2.13
2022-08-03T19:57:01.845Z,2.60
2022-08-03T19:59:33.353Z,2.80
2022-08-03T20:02:00.061Z,2.03
2022-08-03T20:04:26.825Z,2.40
2022-08-03T20:06:57.035Z,2.23
2022-08-03T20:09:24.220Z,2.37
2022-08-03T20:11:57.277Z,2.10
2022-08-03T20:14:26.719Z,2.27
2022-08-03T20:16:53.578Z,2.37
2022-08-03T20:19:20.378Z,2.57
2022-08-03T20:21:48.468Z,1.77
2022-08-03T20:24:32.720Z,2.30
2022-08-03T20:27:03.640Z,2.50
2022-08-03T20:30:04.901Z,2.30
2022-08-03T20:32:25.314Z,2.40
2022-08-03T20:34:52.943Z,2.73
2022-08-03T20:37:20.017Z,2.33
2022-08-03T20:39:49.535Z,2.53
2022-08-03T20:42:21.496Z,2.27
2022-08-03T20:45:04.322Z,2.60
2022-08-03T20:47:35.703Z,2.50
2022-08-03T20:50:04.118Z,2.83
2022-08-03T20:52:34.770Z,2.23
2022-08-03T20:55:12.681Z,2.50
2022-08-03T20:57:40.393Z,2.20
2022-08-03T21:00:12.883Z,4.00
2022-08-03T21:02:42.565Z,3.90
2022-08-03T21:05:10.285Z,4.80
2022-08-03T21:08:05.300Z,3.90
2022-08-03T21:10:34.201Z,4.93
2022-08-03T21:12:55.171Z,2.60
2022-08-03T21:13:02.694Z,2.40
2022-08-03T21:13:18.105Z,3.57
2022-08-03T21:16:04.098Z,2.70
2022-08-03T21:18:50.230Z,4.03
2022-08-03T21:21:19.783Z,2.50
2022-08-03T21:23:50.484Z,3.10
2022-08-03T21:26:20.015Z,4.30
2022-08-03T21:28:48.444Z,2.57
2022-08-03T21:31:24.282Z,3.67
2022-08-03T21:33:55.463Z,2.37
2022-08-03T21:36:22.260Z,2.30
2022-08-03T21:38:55.855Z,1.87
2022-08-03T21:41:28.490Z,2.07
2022-08-03T21:43:55.295Z,2.27
2022-08-03T21:46:23.459Z,2.63
2022-08-03T21:48:56.211Z,2.47
2022-08-03T21:51:25.438Z,2.20
2022-08-03T21:54:03.949Z,1.93
2022-08-03T21:56:36.750Z,2.17
2022-08-03T21:59:08.938Z,2.40
2022-08-03T22:01:39.555Z,2.10
2022-08-03T22:04:07.282Z,2.10
2022-08-03T22:06:36.521Z,2.73
2022-08-03T22:09:06.440Z,2.67
2022-08-03T22:11:36.176Z,2.30
2022-08-03T22:14:03.237Z,2.20
2022-08-03T22:16:30.198Z,2.87
2022-08-03T22:18:56.859Z,2.30
2022-08-03T22:21:36.062Z,2.60
2022-08-03T22:24:05.347Z,2.70
2022-08-03T22:26:35.496Z,2.73
2022-08-03T22:29:07.514Z,2.57
2022-08-03T22:31:57.491Z,2.27
2022-08-03T22:34:26.866Z,2.80
2022-08-03T22:37:01.001Z,2.80
2022-08-03T22:39:29.150Z,2.20
2022-08-03T22:41:59.887Z,2.30
2022-08-03T22:44:27.761Z,2.50
2022-08-03T22:46:55.611Z,2.60
2022-08-03T22:49:22.810Z,2.57
2022-08-03T22:51:51.697Z,2.67
2022-08-03T22:54:18.553Z,2.60
2022-08-03T22:56:49.035Z,2.50
2022-08-03T22:59:40.935Z,2.13
2022-08-03T23:02:20.253Z,2.47
2022-08-03T23:04:51.596Z,2.53
2022-08-03T23:07:27.371Z,2.60
2022-08-03T23:09:56.094Z,2.20
2022-08-03T23:12:23.977Z,2.50
2022-08-03T23:14:57.474Z,2.30
2022-08-03T23:17:25.937Z,2.67
2022-08-03T23:19:53.790Z,2.57
2022-08-03T23:22:30.024Z,2.30
2022-08-03T23:24:58.820Z,2.20
2022-08-03T23:27:27.857Z,2.40
2022-08-03T23:29:57.561Z,3.27
2022-08-03T23:32:29.441Z,3.93
2022-08-03T23:35:17.329Z,2.63
2022-08-03T23:38:04.128Z,2.53
2022-08-03T23:40:33.261Z,2.60
2022-08-03T23:43:01.814Z,3.87
2022-08-03T23:45:31.656Z,3.90
2022-08-03T23:47:58.272Z,2.43
2022-08-03T23:50:27.701Z,2.57
2022-08-03T23:53:17.332Z,2.77
2022-08-03T23:56:04.271Z,2.67
2022-08-03T23:58:47.227Z,2.70
